To NAV CANADA Home Page Login to a new session Search on AWWS site Feedback and Comments Disclaimer Vers la page française équivalente Tips FAQ What's new on the site To the Forecasts and Observations / NOTAM section To "File a Flight Plan" website Publications and other links Update of the User's profile FIC Telephone Numbers My Weather Data Folder Route Weather Data Regional Weather Data Local Weather Data To the Forecasts and Observations / NOTAM section
Request Generated 05/25/2017 at 01:10:15 UTC . Weather information available at that time is displayed.

METAR/TAF

MEDICINE HAT/AB    (show WxCam)

METAR CYXH 250100Z 25031G39KT 6SM BR BKN035 OVC075 10/03 A2923 RMK
SC6AC2 CVCTV CLD EMBD SLP899 DENSITY ALT 3000FT=
SPECI CYXH 250011Z 27024G38KT 15SM SCT044 BKN075 BKN140 13/03 A2924
RMK CU3AC3AC1 CVCTV CLD EMBD SLP900 DENSITY ALT 3300FT=
METAR CYXH 250000Z 27029G40KT 30SM -SHRA SCT055 BKN080 OVC150 12/03
A2924 RMK CU4AC3AC1 CVCTV CLD EMBD SLP900 DENSITY ALT 3300FT=
METAR CYXH 242300Z 25026G33KT 15SM -SHRA FEW055 BKN085 OVC150 15/03
A2920 RMK CU2AC4AC2 CVCTV CLD EMBD SLP885 DENSITY ALT 3600FT=

TAF CYXH 242339Z 2500/2512 25025G40KT P6SM BKN080 BKN160 TEMPO
2500/2502 P6SM -SHRA
FM250400 34035G45KT 2SM SHRA BR BKN008 BKN015 TEMPO 2504/2512 6SM
-RA BR SCT008 OVC015
RMK NXT FCST BY 250600Z=
Your time UTC time
Weather data provided by Environment Canada and NAV CANADA